createdAt,value
2022-11-29T00:02:37.148Z,26.15
2022-11-29T00:05:40.064Z,29.40
2022-11-29T00:08:43.219Z,26.83
2022-11-29T00:12:05.395Z,24.87
2022-11-29T00:15:11.064Z,31.62
2022-11-29T00:18:13.932Z,33.47
2022-11-29T00:21:16.518Z,27.10
2022-11-29T00:24:20.062Z,20.67
2022-11-29T00:27:22.734Z,28.27
2022-11-29T00:30:25.896Z,32.50
2022-11-29T00:33:29.312Z,24.95
2022-11-29T00:36:32.475Z,33.30
2022-11-29T00:39:35.027Z,35.37
2022-11-29T00:42:40.408Z,32.22
2022-11-29T00:45:43.054Z,32.75
2022-11-29T00:48:46.490Z,36.55
2022-11-29T00:51:49.149Z,31.17
2022-11-29T00:54:52.012Z,33.47
2022-11-29T00:57:54.668Z,28.02
2022-11-29T01:00:58.292Z,28.55
2022-11-29T01:04:04.423Z,36.97
2022-11-29T01:07:07.293Z,31.37
2022-11-29T01:10:10.347Z,39.92
2022-11-29T01:13:14.526Z,36.40
2022-11-29T01:16:17.617Z,33.85
2022-11-29T01:19:20.484Z,32.95
2022-11-29T01:22:23.139Z,28.03
2022-11-29T01:25:26.254Z,31.25
2022-11-29T01:28:29.133Z,34.40
2022-11-29T01:31:38.080Z,22.08
2022-11-29T01:34:41.180Z,24.73
2022-11-29T01:37:44.334Z,17.77
2022-11-29T01:40:58.279Z,27.65
2022-11-29T01:44:05.130Z,21.60
2022-11-29T01:47:11.039Z,23.17
2022-11-29T01:50:15.452Z,22.40
2022-11-29T01:53:18.256Z,34.57
2022-11-29T01:56:22.336Z,30.48
2022-11-29T01:59:28.480Z,32.97
2022-11-29T02:02:35.995Z,26.12
2022-11-29T02:05:42.660Z,30.98
2022-11-29T02:08:45.334Z,27.47
2022-11-29T02:12:17.553Z,15.52
2022-11-29T02:16:03.502Z,18.37
2022-11-29T02:19:50.411Z,20.85
2022-11-29T02:23:08.049Z,30.80
2022-11-29T02:26:32.480Z,27.33
2022-11-29T02:30:12.070Z,29.58
2022-11-29T02:33:36.230Z,25.23
2022-11-29T02:36:46.190Z,22.23
2022-11-29T02:40:01.484Z,17.58
2022-11-29T02:43:41.426Z,17.47
2022-11-29T02:47:16.170Z,38.13
2022-11-29T02:50:29.791Z,20.55
2022-11-29T02:53:38.501Z,30.45
2022-11-29T02:56:47.377Z,26.12
2022-11-29T03:00:02.736Z,25.93
2022-11-29T03:03:24.113Z,32.67
2022-11-29T03:07:04.779Z,35.22
2022-11-29T03:10:22.685Z,14.75
2022-11-29T03:13:34.285Z,27.62
2022-11-29T03:16:43.334Z,28.57
2022-11-29T03:19:47.745Z,33.40
2022-11-29T03:23:09.185Z,18.23
2022-11-29T03:26:19.090Z,24.70
2022-11-29T03:29:36.706Z,26.58
2022-11-29T03:32:57.532Z,25.53
2022-11-29T03:36:24.721Z,28.58
2022-11-29T03:39:42.862Z,22.70
2022-11-29T03:42:53.544Z,27.92
2022-11-29T03:46:03.480Z,14.05
2022-11-29T03:49:36.040Z,23.70
2022-11-29T03:52:50.667Z,23.52
2022-11-29T03:55:59.110Z,29.55
2022-11-29T03:59:26.535Z,30.70
2022-11-29T04:02:56.935Z,25.70
2022-11-29T04:06:18.493Z,15.53
2022-11-29T04:09:42.794Z,30.62
2022-11-29T04:13:04.321Z,33.25
2022-11-29T04:16:19.147Z,28.60
2022-11-29T04:19:52.641Z,30.83
2022-11-29T04:23:23.282Z,33.77
2022-11-29T04:26:47.756Z,19.55
2022-11-29T04:30:08.272Z,28.40
2022-11-29T04:33:47.710Z,18.87
2022-11-29T04:36:52.955Z,23.48
2022-11-29T04:40:25.172Z,14.33
2022-11-29T04:43:36.550Z,22.35
2022-11-29T04:47:16.859Z,27.35
2022-11-29T04:50:27.030Z,30.83
2022-11-29T04:53:29.918Z,31.73
2022-11-29T04:57:06.658Z,31.13
2022-11-29T05:00:12.489Z,31.80
2022-11-29T05:03:28.056Z,30.80
2022-11-29T05:06:39.706Z,31.35
2022-11-29T05:10:04.881Z,26.05
2022-11-29T05:13:18.505Z,27.17
2022-11-29T05:16:30.328Z,14.48
2022-11-29T05:19:58.729Z,20.98
2022-11-29T05:23:08.412Z,27.00
2022-11-29T05:26:16.575Z,25.65
2022-11-29T05:29:49.091Z,18.50
2022-11-29T05:33:10.328Z,31.45
2022-11-29T05:36:43.822Z,23.35
2022-11-29T05:39:55.792Z,29.42
2022-11-29T05:43:18.638Z,27.42
2022-11-29T05:46:38.982Z,21.33
2022-11-29T05:50:11.181Z,19.00
2022-11-29T05:53:32.916Z,24.20
2022-11-29T05:56:57.687Z,19.27
2022-11-29T06:00:05.621Z,18.75
2022-11-29T06:03:24.835Z,25.62
2022-11-29T06:07:08.432Z,40.83
2022-11-29T06:10:19.962Z,14.48
2022-11-29T06:14:01.568Z,29.12
2022-11-29T06:17:10.089Z,35.80
2022-11-29T06:20:33.167Z,18.80
2022-11-29T06:23:53.969Z,26.10
2022-11-29T06:27:38.927Z,33.50
2022-11-29T06:31:14.706Z,51.25
2022-11-29T06:34:40.521Z,37.87
2022-11-29T06:37:49.207Z,42.92
2022-11-29T06:40:56.030Z,30.80
2022-11-29T06:44:03.424Z,26.75
2022-11-29T06:47:32.476Z,30.25
2022-11-29T06:51:01.740Z,33.07
2022-11-29T06:54:11.358Z,37.78
2022-11-29T06:57:55.851Z,34.88
2022-11-29T07:01:26.136Z,40.63
2022-11-29T07:05:08.037Z,51.17
2022-11-29T07:08:23.484Z,33.47
2022-11-29T07:11:26.783Z,21.40
2022-11-29T07:14:29.993Z,37.28
2022-11-29T07:17:42.673Z,34.72
2022-11-29T07:20:48.460Z,37.50
2022-11-29T07:24:03.208Z,41.30
2022-11-29T07:27:18.640Z,45.27
2022-11-29T07:30:29.690Z,37.25
2022-11-29T07:34:03.651Z,37.85
2022-11-29T07:37:40.134Z,34.08
2022-11-29T07:40:49.601Z,14.50
2022-11-29T07:44:01.024Z,32.27
2022-11-29T07:47:04.379Z,36.47
2022-11-29T07:50:08.054Z,37.30
2022-11-29T07:53:17.553Z,40.80
2022-11-29T07:56:20.195Z,39.23
2022-11-29T07:59:23.082Z,31.57
2022-11-29T08:02:32.180Z,36.50
2022-11-29T08:05:36.222Z,37.10
2022-11-29T08:08:43.679Z,36.72
2022-11-29T08:11:49.016Z,34.23
2022-11-29T08:14:51.674Z,36.57
2022-11-29T08:17:54.712Z,33.17
2022-11-29T08:20:57.259Z,32.97
2022-11-29T08:24:00.240Z,31.55
2022-11-29T08:27:04.375Z,38.60
2022-11-29T08:30:08.187Z,38.22
2022-11-29T08:33:12.198Z,36.22
2022-11-29T08:36:18.086Z,34.60
2022-11-29T08:39:20.701Z,44.92
2022-11-29T08:42:23.950Z,39.30
2022-11-29T08:45:26.652Z,37.17
2022-11-29T08:48:29.598Z,40.33
2022-11-29T08:51:32.225Z,36.20
2022-11-29T08:54:36.550Z,37.53
2022-11-29T08:57:40.746Z,36.87
2022-11-29T09:00:47.278Z,31.58
2022-11-29T09:04:07.251Z,40.15
2022-11-29T09:07:12.408Z,31.73
2022-11-29T09:10:15.032Z,30.42
2022-11-29T09:13:18.367Z,29.87
2022-11-29T09:16:25.619Z,29.95
2022-11-29T09:19:28.818Z,33.08
2022-11-29T09:22:31.701Z,35.17
2022-11-29T09:25:34.598Z,34.70
2022-11-29T09:28:37.832Z,30.70
2022-11-29T09:31:40.830Z,23.02
2022-11-29T09:34:43.622Z,32.55
2022-11-29T09:37:46.823Z,29.80
2022-11-29T09:40:56.234Z,33.90
2022-11-29T09:44:21.622Z,27.70
2022-11-29T09:47:42.647Z,27.92
2022-11-29T09:50:54.255Z,33.95
2022-11-29T09:54:09.300Z,27.75
2022-11-29T09:57:14.251Z,29.93
2022-11-29T10:00:20.175Z,29.73
2022-11-29T10:03:25.825Z,28.60
2022-11-29T10:06:40.598Z,24.77
2022-11-29T10:09:52.129Z,29.40
2022-11-29T10:13:16.007Z,29.00
2022-11-29T10:16:34.117Z,28.47
2022-11-29T10:19:54.301Z,27.98
2022-11-29T10:23:09.672Z,25.33
2022-11-29T10:26:13.439Z,32.67
2022-11-29T10:29:17.229Z,29.77
2022-11-29T10:32:21.583Z,26.00
2022-11-29T10:35:25.201Z,40.92
2022-11-29T10:38:31.073Z,27.45
2022-11-29T10:41:35.877Z,38.78
2022-11-29T10:44:38.459Z,30.07
2022-11-29T10:47:41.680Z,29.53
2022-11-29T10:50:48.657Z,25.83
2022-11-29T10:53:54.887Z,26.35
2022-11-29T10:57:00.290Z,26.17
2022-11-29T11:00:11.697Z,27.77
2022-11-29T11:03:27.536Z,30.33
2022-11-29T11:06:52.394Z,26.75
2022-11-29T11:09:57.971Z,28.33
2022-11-29T11:13:08.298Z,25.90
2022-11-29T11:16:17.991Z,28.13
2022-11-29T11:19:32.545Z,28.57
2022-11-29T11:22:39.968Z,27.05
2022-11-29T11:25:42.984Z,29.02
2022-11-29T11:28:59.753Z,24.33
2022-11-29T11:32:04.902Z,25.80
2022-11-29T11:35:23.079Z,25.97
2022-11-29T11:38:26.127Z,26.27
2022-11-29T11:41:56.998Z,26.05
2022-11-29T11:45:01.213Z,27.48
2022-11-29T11:48:14.505Z,26.23
2022-11-29T11:51:24.582Z,25.13
2022-11-29T11:54:29.863Z,29.60
2022-11-29T11:57:33.000Z,31.17
2022-11-29T12:01:06.415Z,24.70
2022-11-29T12:04:23.905Z,29.00
2022-11-29T12:11:15.725Z,27.58
2022-11-29T12:14:30.427Z,29.37
2022-11-29T12:18:02.629Z,50.42
2022-11-29T12:21:27.731Z,28.63
2022-11-29T12:24:39.249Z,28.13
2022-11-29T12:27:41.902Z,30.12
2022-11-29T12:31:00.037Z,32.42
2022-11-29T12:34:33.613Z,32.85
2022-11-29T12:37:56.383Z,29.07
2022-11-29T12:41:26.170Z,32.83
2022-11-29T12:45:04.168Z,35.22
2022-11-29T12:48:19.160Z,31.55
2022-11-29T12:51:34.906Z,33.38
2022-11-29T12:55:08.328Z,26.27
2022-11-29T12:58:19.159Z,26.07
2022-11-29T13:01:40.038Z,17.70
2022-11-29T13:04:55.039Z,15.85
2022-11-29T13:08:33.640Z,20.33
2022-11-29T13:11:41.252Z,16.10
2022-11-29T13:15:00.053Z,20.50
2022-11-29T13:18:15.905Z,12.37
2022-11-29T13:21:34.908Z,18.87
2022-11-29T13:24:49.308Z,15.88
2022-11-29T13:28:00.384Z,13.53
2022-11-29T13:31:08.441Z,17.63
2022-11-29T13:34:42.822Z,21.83
2022-11-29T13:38:01.311Z,17.10
2022-11-29T13:41:28.900Z,16.20
2022-11-29T13:44:48.003Z,19.27
2022-11-29T13:47:58.874Z,20.27
2022-11-29T13:51:37.815Z,16.00
2022-11-29T13:54:40.425Z,40.38
2022-11-29T13:58:17.484Z,34.78
2022-11-29T14:01:21.859Z,28.20
2022-11-29T14:04:46.085Z,27.57
2022-11-29T14:08:26.735Z,26.73
2022-11-29T14:11:50.740Z,25.67
2022-11-29T14:15:24.627Z,23.00
2022-11-29T14:18:36.762Z,20.43
2022-11-29T14:22:07.359Z,21.70
2022-11-29T14:28:47.178Z,28.15
2022-11-29T14:31:51.938Z,26.83
2022-11-29T14:35:09.998Z,30.40
2022-11-29T14:38:31.256Z,33.73
2022-11-29T14:41:52.312Z,27.60
2022-11-29T14:45:00.822Z,26.77
2022-11-29T14:48:03.678Z,24.45
2022-11-29T14:51:09.663Z,33.20
2022-11-29T14:54:18.523Z,46.97
2022-11-29T14:58:06.184Z,55.20
2022-11-29T15:01:11.013Z,47.67
2022-11-29T15:04:14.520Z,44.95
2022-11-29T15:07:23.471Z,61.27
2022-11-29T15:10:31.466Z,57.83
2022-11-29T15:13:37.078Z,63.83
2022-11-29T15:17:04.483Z,65.97
2022-11-29T15:20:20.031Z,68.65
2022-11-29T15:23:23.057Z,54.17
2022-11-29T15:26:25.583Z,65.57
2022-11-29T15:29:30.416Z,62.85
2022-11-29T15:32:33.567Z,65.22
2022-11-29T15:35:38.449Z,62.83
2022-11-29T15:39:08.518Z,60.50
2022-11-29T15:42:13.742Z,60.27
2022-11-29T15:45:35.258Z,70.28
2022-11-29T15:48:38.328Z,54.05
2022-11-29T15:51:41.481Z,56.35
2022-11-29T15:54:51.581Z,57.93
2022-11-29T15:57:57.884Z,67.30
2022-11-29T16:01:02.355Z,62.08
2022-11-29T16:04:05.815Z,59.45
2022-11-29T16:07:08.707Z,59.20
2022-11-29T16:10:16.844Z,63.30
2022-11-29T16:13:34.364Z,68.40
2022-11-29T16:16:42.225Z,63.55
2022-11-29T16:19:45.062Z,69.03
2022-11-29T16:23:04.762Z,88.97
2022-11-29T16:26:13.662Z,83.83
2022-11-29T16:29:38.360Z,90.85
2022-11-29T16:32:44.547Z,188.55
2022-11-29T16:35:48.535Z,87.80
2022-11-29T16:38:54.831Z,110.80
2022-11-29T16:42:12.987Z,110.70
2022-11-29T16:45:35.255Z,92.35
2022-11-29T16:51:59.158Z,147.45
2022-11-29T16:55:02.491Z,134.15
2022-11-29T16:58:05.220Z,84.17
2022-11-29T17:01:19.832Z,113.88
2022-11-29T17:04:23.895Z,154.07
2022-11-29T17:07:35.403Z,141.57
2022-11-29T17:10:38.478Z,128.35
2022-11-29T17:13:41.475Z,149.97
2022-11-29T17:16:47.781Z,130.57
2022-11-29T17:19:50.695Z,164.00
2022-11-29T17:22:55.537Z,136.90
2022-11-29T17:25:59.868Z,121.80
2022-11-29T17:29:02.485Z,125.70
2022-11-29T17:32:05.615Z,108.15
2022-11-29T17:35:08.798Z,122.18
2022-11-29T17:38:11.752Z,107.30
2022-11-29T17:41:18.398Z,110.15
2022-11-29T17:44:21.725Z,106.33
2022-11-29T17:47:24.679Z,105.30
2022-11-29T17:50:29.304Z,114.80
2022-11-29T17:53:33.637Z,98.37
2022-11-29T17:56:37.360Z,96.50
2022-11-29T17:59:40.377Z,78.73
2022-11-29T18:02:44.831Z,76.30
2022-11-29T18:05:48.030Z,79.75
2022-11-29T18:08:54.089Z,96.20
2022-11-29T18:12:00.566Z,78.55
2022-11-29T18:15:03.748Z,84.63
2022-11-29T18:18:06.804Z,76.50
2022-11-29T18:21:11.918Z,71.32
2022-11-29T18:24:15.297Z,66.28
2022-11-29T18:27:19.948Z,68.10
2022-11-29T18:30:23.496Z,59.93
2022-11-29T18:33:27.449Z,62.22
2022-11-29T18:36:33.804Z,57.28
2022-11-29T18:39:36.936Z,62.55
2022-11-29T18:42:40.440Z,35.38
2022-11-29T18:45:43.516Z,52.47
2022-11-29T18:48:48.319Z,53.17
2022-11-29T18:51:52.508Z,54.50
2022-11-29T18:54:56.291Z,61.85
2022-11-29T18:57:58.985Z,59.92
2022-11-29T19:01:17.245Z,61.37
2022-11-29T19:04:22.122Z,62.63
2022-11-29T19:07:27.758Z,62.13
2022-11-29T19:10:32.604Z,54.42
2022-11-29T19:13:39.851Z,54.78
2022-11-29T19:16:45.633Z,49.43
2022-11-29T19:19:49.183Z,49.33
2022-11-29T19:22:56.096Z,57.38
2022-11-29T19:26:10.269Z,65.50
2022-11-29T19:29:15.016Z,68.65
2022-11-29T19:32:19.184Z,73.73
2022-11-29T19:35:24.470Z,80.55
2022-11-29T19:38:28.999Z,63.95
2022-11-29T19:41:37.293Z,72.53
2022-11-29T19:45:15.220Z,71.25
2022-11-29T19:48:07.348Z,60.13
2022-11-29T19:51:13.528Z,67.20
2022-11-29T19:54:16.582Z,63.33
2022-11-29T19:57:20.100Z,59.72
2022-11-29T20:00:23.452Z,69.43
2022-11-29T20:03:26.896Z,71.13
2022-11-29T20:06:40.049Z,71.22
2022-11-29T20:09:43.663Z,70.47
2022-11-29T20:12:46.842Z,70.62
2022-11-29T20:15:50.445Z,71.70
2022-11-29T20:18:54.479Z,62.63
2022-11-29T20:21:58.044Z,74.77
2022-11-29T20:25:02.638Z,72.15
2022-11-29T20:28:07.986Z,66.62
2022-11-29T20:31:18.447Z,70.80
2022-11-29T20:34:22.075Z,65.80
2022-11-29T20:37:38.386Z,63.50
2022-11-29T20:41:11.713Z,70.60
2022-11-29T20:44:20.263Z,64.07
2022-11-29T20:47:33.078Z,54.75
2022-11-29T20:50:38.689Z,61.00
2022-11-29T20:53:44.457Z,54.93
2022-11-29T20:56:47.437Z,52.20
2022-11-29T20:59:50.893Z,52.80
2022-11-29T21:02:55.238Z,54.75
2022-11-29T21:06:04.242Z,52.27
2022-11-29T21:09:07.214Z,56.83
2022-11-29T21:12:11.184Z,50.67
2022-11-29T21:15:15.200Z,53.03
2022-11-29T21:18:27.388Z,47.47
2022-11-29T21:21:48.799Z,53.10
2022-11-29T21:24:58.161Z,48.50
2022-11-29T21:28:01.225Z,49.15
2022-11-29T21:31:04.670Z,48.90
2022-11-29T21:34:08.605Z,45.47
2022-11-29T21:37:11.544Z,51.13
2022-11-29T21:40:15.984Z,49.70
2022-11-29T21:43:20.702Z,51.47
2022-11-29T21:46:25.369Z,49.20
2022-11-29T21:49:29.316Z,54.00
2022-11-29T21:52:31.819Z,47.07
2022-11-29T21:55:34.738Z,52.13
2022-11-29T21:58:38.746Z,49.10
2022-11-29T22:01:41.824Z,47.70
2022-11-29T22:04:45.569Z,50.50
2022-11-29T22:07:49.488Z,45.40
2022-11-29T22:11:01.006Z,51.33
2022-11-29T22:14:15.741Z,50.83
2022-11-29T22:17:18.635Z,49.65
2022-11-29T22:20:21.512Z,46.30
2022-11-29T22:23:26.712Z,47.73
2022-11-29T22:26:29.440Z,49.10
2022-11-29T22:29:33.518Z,45.12
2022-11-29T22:32:36.077Z,51.17
2022-11-29T22:35:45.390Z,45.92
2022-11-29T22:38:48.044Z,48.40
2022-11-29T22:41:55.033Z,53.35
2022-11-29T22:44:57.884Z,45.65
2022-11-29T22:48:00.826Z,47.95
2022-11-29T22:51:11.934Z,46.50
2022-11-29T22:54:18.156Z,43.07
2022-11-29T22:57:20.809Z,44.80
2022-11-29T23:00:26.365Z,44.17
2022-11-29T23:03:32.522Z,43.30
2022-11-29T23:06:41.028Z,45.55
2022-11-29T23:09:43.891Z,46.60
2022-11-29T23:12:49.754Z,45.60
2022-11-29T23:15:53.017Z,47.38
2022-11-29T23:18:58.360Z,45.35
2022-11-29T23:22:00.967Z,42.45
2022-11-29T23:25:04.112Z,41.80
2022-11-29T23:28:06.747Z,46.60
2022-11-29T23:31:10.910Z,47.22
2022-11-29T23:34:14.485Z,41.97
2022-11-29T23:37:18.457Z,40.30
2022-11-29T23:40:21.126Z,45.50
2022-11-29T23:43:24.498Z,47.30
2022-11-29T23:46:27.130Z,48.55
2022-11-29T23:49:29.971Z,44.35
2022-11-29T23:52:32.826Z,46.20
2022-11-29T23:55:35.674Z,41.53
2022-11-29T23:58:38.606Z,50.50
